createdAt,value
2023-02-08T00:02:19.394Z,-1.75
2023-02-08T00:04:47.604Z,-1.63
2023-02-08T00:07:16.025Z,-1.70
2023-02-08T00:09:43.875Z,-1.59
2023-02-08T00:12:11.712Z,-1.85
2023-02-08T00:14:40.519Z,-1.71
2023-02-08T00:17:09.365Z,-1.69
2023-02-08T00:19:37.802Z,-1.65
2023-02-08T00:22:05.426Z,-1.44
2023-02-08T00:24:33.380Z,-1.72
2023-02-08T00:27:01.624Z,-1.66
2023-02-08T00:29:29.563Z,-1.59
2023-02-08T00:31:59.017Z,-1.34
2023-02-08T00:34:27.944Z,-1.46
2023-02-08T00:36:55.536Z,-1.27
2023-02-08T00:39:24.558Z,-1.37
2023-02-08T00:41:53.191Z,-1.37
2023-02-08T00:44:25.641Z,-1.25
2023-02-08T00:46:55.130Z,-1.14
2023-02-08T00:49:23.420Z,-1.04
2023-02-08T00:51:52.183Z,-0.97
2023-02-08T00:54:21.846Z,-0.99
2023-02-08T00:56:51.730Z,-0.96
2023-02-08T00:59:23.449Z,-0.97
2023-02-08T01:02:04.268Z,-0.67
2023-02-08T01:04:36.832Z,-0.77
2023-02-08T01:07:10.365Z,-0.66
2023-02-08T01:09:40.722Z,-0.45
2023-02-08T01:12:17.315Z,-0.75
2023-02-08T01:14:47.482Z,-0.81
2023-02-08T01:17:15.069Z,-0.75
2023-02-08T01:19:42.716Z,-0.61
2023-02-08T01:22:10.562Z,-0.64
2023-02-08T01:24:37.882Z,-0.48
2023-02-08T01:27:05.253Z,-0.46
2023-02-08T01:29:33.977Z,-0.39
2023-02-08T01:32:01.910Z,-0.37
2023-02-08T01:34:30.164Z,-0.44
2023-02-08T01:37:01.430Z,-0.25
2023-02-08T01:39:28.716Z,-0.21
2023-02-08T01:41:56.103Z,-0.14
2023-02-08T01:45:02.647Z,-0.07
2023-02-08T01:47:30.770Z,-0.04
2023-02-08T01:49:58.991Z,-0.11
2023-02-08T01:52:28.796Z,-0.01
2023-02-08T01:55:30.942Z,0.00
2023-02-08T01:58:06.579Z,0.12
2023-02-08T02:00:35.037Z,0.16
2023-02-08T02:03:04.845Z,0.13
2023-02-08T02:05:35.834Z,0.26
2023-02-08T02:08:03.947Z,0.36
2023-02-08T02:10:34.109Z,0.42
2023-02-08T02:13:12.627Z,0.12
2023-02-08T02:15:44.998Z,0.42
2023-02-08T02:18:36.204Z,0.30
2023-02-08T02:21:41.513Z,0.22
2023-02-08T02:25:00.251Z,0.33
2023-02-08T02:28:15.221Z,0.33
2023-02-08T02:31:04.089Z,0.33
2023-02-08T02:34:02.337Z,0.56
2023-02-08T02:36:47.603Z,0.50
2023-02-08T02:39:36.030Z,0.64
2023-02-08T02:42:59.604Z,0.40
2023-02-08T02:45:55.617Z,0.49
2023-02-08T02:48:59.225Z,0.68
2023-02-08T02:51:39.040Z,0.56
2023-02-08T02:54:08.895Z,0.47
2023-02-08T02:56:43.034Z,0.95
2023-02-08T02:59:12.942Z,0.46
2023-02-08T03:01:43.141Z,0.64
2023-02-08T03:04:19.772Z,0.52
2023-02-08T03:07:17.934Z,0.60
2023-02-08T03:10:15.701Z,0.65
2023-02-08T03:12:59.142Z,0.51
2023-02-08T03:16:17.315Z,0.64
2023-02-08T03:18:44.908Z,0.43
2023-02-08T03:21:41.875Z,0.63
2023-02-08T03:24:13.664Z,0.64
2023-02-08T03:27:08.826Z,0.57
2023-02-08T03:30:24.284Z,0.57
2023-02-08T03:33:12.128Z,0.80
2023-02-08T03:36:25.036Z,0.73
2023-02-08T03:39:22.664Z,0.67
2023-02-08T03:42:05.568Z,0.58
2023-02-08T03:45:17.367Z,0.65
2023-02-08T03:48:07.132Z,0.83
2023-02-08T03:50:38.112Z,0.89
2023-02-08T03:53:08.458Z,0.93
2023-02-08T03:55:46.131Z,1.18
2023-02-08T03:58:34.306Z,1.38
2023-02-08T04:01:24.451Z,1.06
2023-02-08T04:03:54.516Z,0.90
2023-02-08T04:06:24.342Z,0.77
2023-02-08T04:08:53.263Z,0.95
2023-02-08T04:11:21.515Z,1.29
2023-02-08T04:14:08.097Z,0.98
2023-02-08T04:16:51.831Z,1.13
2023-02-08T04:19:31.870Z,1.20
2023-02-08T04:22:14.306Z,1.17
2023-02-08T04:25:09.796Z,1.07
2023-02-08T04:27:38.101Z,1.38
2023-02-08T04:30:06.433Z,0.99
2023-02-08T04:32:34.243Z,1.23
2023-02-08T04:35:43.608Z,1.44
2023-02-08T04:38:13.628Z,1.35
2023-02-08T04:40:43.520Z,1.33
2023-02-08T04:43:12.696Z,1.40
2023-02-08T04:46:09.458Z,1.44
2023-02-08T04:48:37.577Z,1.51
2023-02-08T04:51:05.816Z,1.57
2023-02-08T04:53:34.974Z,1.66
2023-02-08T04:56:03.865Z,1.94
2023-02-08T04:58:32.124Z,1.75
2023-02-08T05:01:00.036Z,1.56
2023-02-08T05:03:31.494Z,1.67
2023-02-08T05:06:01.775Z,1.83
2023-02-08T05:08:29.640Z,1.71
2023-02-08T05:10:57.994Z,1.77
2023-02-08T05:13:26.267Z,1.86
2023-02-08T05:15:57.370Z,1.93
2023-02-08T05:18:25.464Z,1.71
2023-02-08T05:21:00.989Z,1.80
2023-02-08T05:23:29.977Z,1.68
2023-02-08T05:25:59.255Z,1.64
2023-02-08T05:28:27.193Z,1.67
2023-02-08T05:30:55.720Z,1.76
2023-02-08T05:33:24.804Z,1.70
2023-02-08T05:35:54.854Z,1.66
2023-02-08T05:38:23.932Z,1.69
2023-02-08T05:40:53.305Z,1.88
2023-02-08T05:43:21.639Z,1.77
2023-02-08T05:45:51.405Z,1.90
2023-02-08T05:48:21.136Z,2.00
2023-02-08T05:50:49.110Z,2.07
2023-02-08T05:53:21.307Z,2.41
2023-02-08T05:55:49.167Z,2.20
2023-02-08T05:58:20.522Z,2.01
2023-02-08T06:00:55.507Z,2.19
2023-02-08T06:03:24.977Z,2.04
2023-02-08T06:06:12.439Z,1.86
2023-02-08T06:08:45.321Z,1.99
2023-02-08T06:11:14.669Z,1.86
2023-02-08T06:13:44.080Z,2.05
2023-02-08T06:16:19.537Z,2.12
2023-02-08T06:18:47.841Z,2.02
2023-02-08T06:21:17.911Z,2.04
2023-02-08T06:23:52.338Z,2.13
2023-02-08T06:26:26.751Z,1.96
2023-02-08T06:28:54.913Z,1.89
2023-02-08T06:31:40.139Z,2.09
2023-02-08T06:34:22.350Z,1.97
2023-02-08T06:36:52.937Z,2.01
2023-02-08T06:39:27.190Z,2.08
2023-02-08T06:42:07.754Z,1.77
2023-02-08T06:44:35.854Z,1.89
2023-02-08T06:47:04.557Z,1.76
2023-02-08T06:49:38.876Z,2.33
2023-02-08T06:52:08.722Z,2.55
2023-02-08T06:54:42.340Z,2.56
2023-02-08T06:57:15.274Z,1.99
2023-02-08T06:59:44.537Z,2.10
2023-02-08T07:02:17.582Z,2.10
2023-02-08T07:04:50.456Z,2.08
2023-02-08T07:07:20.507Z,2.17
2023-02-08T07:09:49.062Z,2.31
2023-02-08T07:12:19.661Z,2.44
2023-02-08T07:14:54.515Z,2.40
2023-02-08T07:17:23.971Z,2.81
2023-02-08T07:19:52.858Z,2.70
2023-02-08T07:22:22.646Z,2.87
2023-02-08T07:24:50.863Z,2.68
2023-02-08T07:27:21.321Z,2.94
2023-02-08T07:29:51.734Z,2.97
2023-02-08T07:32:20.364Z,3.17
2023-02-08T07:34:48.410Z,3.18
2023-02-08T07:37:26.814Z,2.60
2023-02-08T07:39:55.913Z,2.81
2023-02-08T07:42:31.281Z,2.90
2023-02-08T07:45:09.577Z,3.24
2023-02-08T07:47:39.352Z,3.27
2023-02-08T07:50:10.317Z,3.31
2023-02-08T07:52:38.574Z,3.18
2023-02-08T07:55:13.560Z,3.42
2023-02-08T07:57:43.594Z,3.30
2023-02-08T08:00:15.674Z,3.13
2023-02-08T08:05:34.569Z,3.41
2023-02-08T08:08:05.486Z,3.68
2023-02-08T08:10:42.843Z,3.57
2023-02-08T08:15:53.386Z,3.82
2023-02-08T08:18:21.566Z,3.38
2023-02-08T08:20:52.876Z,2.77
2023-02-08T08:23:23.299Z,3.22
2023-02-08T08:25:51.940Z,3.28
2023-02-08T08:28:20.241Z,2.84
2023-02-08T08:30:50.426Z,3.07
2023-02-08T08:33:29.213Z,3.08
2023-02-08T08:35:57.695Z,3.44
2023-02-08T08:38:25.711Z,3.89
2023-02-08T08:40:53.510Z,4.04
2023-02-08T08:43:22.567Z,3.70
2023-02-08T08:45:53.058Z,3.63
2023-02-08T08:48:26.386Z,3.16
2023-02-08T08:50:56.858Z,2.60
2023-02-08T08:53:25.978Z,3.31
2023-02-08T08:55:57.685Z,3.34
2023-02-08T08:58:25.953Z,3.22
2023-02-08T09:01:00.329Z,2.97
2023-02-08T09:03:30.381Z,3.44
2023-02-08T09:05:59.417Z,3.43
2023-02-08T09:08:27.320Z,3.51
2023-02-08T09:11:04.277Z,3.60
2023-02-08T09:13:33.217Z,3.59
2023-02-08T09:16:11.265Z,3.92
2023-02-08T09:18:43.202Z,3.63
2023-02-08T09:21:24.323Z,3.70
2023-02-08T09:23:53.078Z,3.47
2023-02-08T09:26:24.867Z,3.04
2023-02-08T09:28:55.467Z,3.54
2023-02-08T09:31:28.014Z,3.50
2023-02-08T09:33:58.169Z,3.68
2023-02-08T09:36:30.206Z,4.05
2023-02-08T09:39:03.168Z,4.08
2023-02-08T09:41:57.132Z,3.78
2023-02-08T09:44:51.943Z,4.17
2023-02-08T09:47:30.647Z,3.66
2023-02-08T09:50:01.955Z,4.06
2023-02-08T09:52:43.111Z,4.21
2023-02-08T09:55:40.257Z,4.35
2023-02-08T09:58:28.625Z,4.43
2023-02-08T10:01:00.528Z,4.74
2023-02-08T10:03:37.350Z,5.22
2023-02-08T10:06:26.286Z,4.81
2023-02-08T10:08:55.362Z,4.78
2023-02-08T10:11:47.293Z,4.50
2023-02-08T10:14:43.458Z,5.08
2023-02-08T10:17:47.492Z,4.93
2023-02-08T10:20:41.424Z,4.79
2023-02-08T10:23:41.849Z,5.05
2023-02-08T10:26:15.274Z,5.24
2023-02-08T10:28:44.165Z,4.43
2023-02-08T10:31:24.366Z,4.63
2023-02-08T10:34:08.131Z,5.56
2023-02-08T10:36:52.158Z,5.26
2023-02-08T10:39:35.887Z,5.46
2023-02-08T10:42:14.829Z,5.65
2023-02-08T10:45:06.556Z,6.04
2023-02-08T10:48:02.133Z,6.05
2023-02-08T10:50:38.646Z,6.23
2023-02-08T10:56:05.673Z,6.39
2023-02-08T10:58:52.417Z,6.47
2023-02-08T11:01:34.921Z,5.90
2023-02-08T11:04:14.507Z,5.71
2023-02-08T11:06:51.103Z,6.48
2023-02-08T11:09:32.481Z,6.44
2023-02-08T11:14:57.461Z,6.26
2023-02-08T11:17:35.879Z,6.37
2023-02-08T11:20:33.789Z,6.57
2023-02-08T11:23:31.611Z,6.16
2023-02-08T11:26:19.239Z,5.79
2023-02-08T11:29:02.874Z,6.16
2023-02-08T11:31:32.649Z,6.09
2023-02-08T11:34:07.000Z,6.50
2023-02-08T11:36:52.769Z,5.90
2023-02-08T11:39:44.436Z,5.58
2023-02-08T11:42:29.128Z,5.79
2023-02-08T11:45:09.377Z,5.56
2023-02-08T11:47:47.288Z,6.03
2023-02-08T11:50:47.118Z,5.93
2023-02-08T11:53:29.322Z,6.43
2023-02-08T11:56:35.192Z,6.43
2023-02-08T11:59:03.883Z,6.96
2023-02-08T12:01:37.748Z,6.68
2023-02-08T12:04:17.839Z,6.24
2023-02-08T12:07:17.698Z,6.52
2023-02-08T12:10:05.392Z,6.29
2023-02-08T12:12:38.640Z,6.15
2023-02-08T12:15:23.069Z,6.28
2023-02-08T12:18:22.318Z,5.92
2023-02-08T12:21:08.444Z,5.89
2023-02-08T12:23:48.068Z,5.97
2023-02-08T12:29:48.259Z,6.10
2023-02-08T12:32:35.337Z,6.24
2023-02-08T12:35:21.927Z,5.74
2023-02-08T12:38:23.541Z,5.76
2023-02-08T12:41:18.468Z,5.52
2023-02-08T12:44:13.721Z,6.08
2023-02-08T12:46:51.065Z,5.73
2023-02-08T12:49:24.590Z,5.61
2023-02-08T12:52:14.410Z,5.65
2023-02-08T12:54:59.240Z,6.23
2023-02-08T12:57:31.753Z,6.48
2023-02-08T13:00:18.500Z,6.20
2023-02-08T13:03:37.212Z,6.06
2023-02-08T13:06:08.190Z,5.24
2023-02-08T13:09:08.239Z,5.48
2023-02-08T13:11:56.126Z,5.55
2023-02-08T13:14:48.466Z,5.46
2023-02-08T13:17:38.505Z,5.54
2023-02-08T13:20:31.133Z,5.75
2023-02-08T13:23:11.759Z,5.63
2023-02-08T13:26:00.821Z,5.57
2023-02-08T13:28:39.442Z,5.75
2023-02-08T13:34:55.486Z,5.16
2023-02-08T13:37:49.556Z,5.15
2023-02-08T13:40:33.256Z,5.36
2023-02-08T13:43:15.736Z,5.39
2023-02-08T13:45:56.660Z,5.10
2023-02-08T13:51:59.914Z,5.84
2023-02-08T13:57:49.844Z,6.39
2023-02-08T14:00:28.133Z,6.49
2023-02-08T14:03:26.232Z,6.64
2023-02-08T14:06:27.117Z,6.77
2023-02-08T14:09:04.476Z,6.35
2023-02-08T14:12:01.708Z,6.51
2023-02-08T14:14:39.728Z,6.77
2023-02-08T14:17:22.561Z,6.44
2023-02-08T14:20:07.432Z,6.00
2023-02-08T14:22:40.355Z,5.79
2023-02-08T14:25:20.371Z,5.65
2023-02-08T14:28:01.308Z,5.92
2023-02-08T14:30:39.227Z,5.81
2023-02-08T14:33:14.486Z,6.29
2023-02-08T14:35:55.210Z,6.05
2023-02-08T14:38:24.421Z,6.26
2023-02-08T14:41:01.328Z,5.89
2023-02-08T14:46:38.064Z,5.99
2023-02-08T14:49:18.331Z,6.51
2023-02-08T14:51:52.059Z,5.70
2023-02-08T14:57:41.015Z,5.87
2023-02-08T15:00:25.654Z,5.85
2023-02-08T15:02:56.112Z,6.23
2023-02-08T15:05:29.518Z,5.74
2023-02-08T15:08:03.450Z,5.76
2023-02-08T15:10:33.319Z,5.39
2023-02-08T15:13:18.724Z,5.17
2023-02-08T15:15:53.305Z,5.51
2023-02-08T15:21:13.845Z,5.57
2023-02-08T15:24:05.902Z,5.10
2023-02-08T15:26:38.509Z,5.15
2023-02-08T15:29:44.274Z,5.18
2023-02-08T15:37:44.145Z,5.30
2023-02-08T15:40:36.259Z,5.51
2023-02-08T15:43:19.349Z,5.67
2023-02-08T15:46:11.319Z,5.74
2023-02-08T15:48:49.655Z,5.48
2023-02-08T15:51:24.843Z,5.37
2023-02-08T15:53:58.164Z,5.76
2023-02-08T15:56:40.069Z,5.58
2023-02-08T15:59:25.233Z,5.83
2023-02-08T16:04:44.125Z,5.69
2023-02-08T16:07:54.069Z,5.76
2023-02-08T16:13:21.534Z,5.67
2023-02-08T16:16:22.871Z,5.52
2023-02-08T16:19:03.494Z,5.53
2023-02-08T16:21:40.481Z,5.59
2023-02-08T16:24:12.214Z,5.61
2023-02-08T16:26:48.625Z,5.70
2023-02-08T16:32:30.513Z,5.60
2023-02-08T16:35:19.150Z,5.54
2023-02-08T16:38:03.201Z,5.47
2023-02-08T16:40:54.140Z,5.40
2023-02-08T16:46:16.241Z,5.39
2023-02-08T16:48:56.304Z,5.25
2023-02-08T16:51:31.381Z,5.29
2023-02-08T16:54:12.177Z,5.30
2023-02-08T16:56:51.285Z,5.13
2023-02-08T16:59:20.522Z,5.20
2023-02-08T17:04:26.838Z,4.91
2023-02-08T17:07:02.261Z,4.73
2023-02-08T17:09:39.224Z,4.74
2023-02-08T17:12:22.368Z,4.65
2023-02-08T17:15:04.188Z,4.52
2023-02-08T17:17:32.116Z,4.53
2023-02-08T17:23:00.226Z,4.39
2023-02-08T17:25:30.123Z,4.40
2023-02-08T17:28:12.300Z,4.31
2023-02-08T17:30:57.285Z,4.22
2023-02-08T17:33:33.230Z,4.03
2023-02-08T17:36:12.180Z,3.92
2023-02-08T17:38:46.355Z,3.87
2023-02-08T17:41:23.165Z,3.83
2023-02-08T17:43:58.040Z,3.87
2023-02-08T17:46:37.216Z,3.78
2023-02-08T17:51:45.209Z,3.70
2023-02-08T17:54:17.229Z,3.70
2023-02-08T17:56:47.339Z,3.65
2023-02-08T17:59:14.876Z,3.66
2023-02-08T18:01:45.872Z,3.63
2023-02-08T18:04:15.075Z,3.57
2023-02-08T18:06:57.144Z,3.43
2023-02-08T18:09:35.162Z,3.42
2023-02-08T18:12:10.214Z,3.39
2023-02-08T18:14:53.253Z,3.39
2023-02-08T18:17:35.176Z,3.33
2023-02-08T18:20:10.128Z,3.30
2023-02-08T18:22:41.854Z,3.21
2023-02-08T18:27:55.436Z,3.19
2023-02-08T18:30:30.195Z,3.18
2023-02-08T18:35:40.485Z,3.38
2023-02-08T18:38:17.447Z,3.32
2023-02-08T18:43:28.033Z,2.99
2023-02-08T18:46:06.628Z,3.17
2023-02-08T18:48:38.753Z,3.27
2023-02-08T18:51:19.025Z,3.14
2023-02-08T18:53:58.122Z,3.16
2023-02-08T18:56:29.567Z,2.96
2023-02-08T19:01:45.631Z,2.88
2023-02-08T19:04:20.416Z,2.86
2023-02-08T19:07:02.279Z,2.63
2023-02-08T19:09:38.368Z,2.96
2023-02-08T19:12:11.206Z,2.82
2023-02-08T19:14:43.497Z,2.81
2023-02-08T19:17:14.722Z,2.85
2023-02-08T19:19:50.440Z,2.80
2023-02-08T19:22:24.544Z,2.73
2023-02-08T19:25:11.073Z,2.80
2023-02-08T19:27:45.211Z,2.76
2023-02-08T19:30:18.180Z,2.67
2023-02-08T19:32:54.139Z,2.41
2023-02-08T19:35:30.131Z,2.38
2023-02-08T19:38:07.331Z,2.51
2023-02-08T19:40:37.483Z,2.52
2023-02-08T19:46:08.152Z,2.26
2023-02-08T19:48:49.432Z,2.20
2023-02-08T19:51:20.804Z,2.16
2023-02-08T19:53:56.880Z,2.40
2023-02-08T19:56:33.889Z,2.16
2023-02-08T19:59:19.152Z,2.01
2023-02-08T20:04:34.406Z,2.23
2023-02-08T20:07:06.314Z,1.91
2023-02-08T20:12:16.525Z,1.90
2023-02-08T20:17:28.148Z,1.81
2023-02-08T20:20:00.277Z,1.76
2023-02-08T20:22:34.182Z,1.63
2023-02-08T20:25:04.489Z,1.66
2023-02-08T20:27:35.074Z,1.71
2023-02-08T20:30:05.227Z,1.62
2023-02-08T20:32:36.907Z,1.53
2023-02-08T20:35:06.114Z,1.49
2023-02-08T20:37:36.434Z,1.43
2023-02-08T20:40:12.939Z,1.56
2023-02-08T20:42:46.310Z,1.49
2023-02-08T20:45:27.278Z,1.25
2023-02-08T20:48:02.110Z,1.43
2023-02-08T20:50:34.216Z,1.22
2023-02-08T20:53:06.096Z,1.40
2023-02-08T20:55:44.680Z,1.26
2023-02-08T20:58:15.970Z,1.20
2023-02-08T21:00:46.542Z,1.17
2023-02-08T21:03:16.074Z,1.05
2023-02-08T21:05:49.257Z,0.99
2023-02-08T21:08:19.710Z,0.86
2023-02-08T21:10:50.488Z,0.77
2023-02-08T21:13:21.162Z,0.93
2023-02-08T21:15:53.313Z,0.91
2023-02-08T21:18:27.357Z,1.00
2023-02-08T21:21:05.108Z,0.90
2023-02-08T21:23:38.402Z,1.12
2023-02-08T21:26:13.492Z,1.05
2023-02-08T21:31:30.176Z,1.06
2023-02-08T21:34:06.386Z,0.90
2023-02-08T21:36:37.222Z,0.86
2023-02-08T21:39:06.060Z,0.95
2023-02-08T21:41:36.576Z,0.87
2023-02-08T21:44:12.068Z,0.69
2023-02-08T21:46:43.160Z,0.89
2023-02-08T21:49:32.310Z,0.66
2023-02-08T21:52:24.526Z,0.65
2023-02-08T21:57:39.985Z,0.64
2023-02-08T22:00:10.522Z,0.56
2023-02-08T22:02:40.221Z,0.48
2023-02-08T22:05:09.582Z,0.56
2023-02-08T22:07:47.374Z,0.45
2023-02-08T22:10:21.176Z,0.38
2023-02-08T22:12:52.558Z,0.41
2023-02-08T22:15:28.873Z,0.33
2023-02-08T22:17:58.894Z,0.40
2023-02-08T22:20:31.488Z,0.41
2023-02-08T22:23:00.301Z,0.49
2023-02-08T22:25:28.550Z,0.35
2023-02-08T22:28:00.593Z,0.09
2023-02-08T22:30:34.659Z,0.21
2023-02-08T22:33:06.362Z,0.12
2023-02-08T22:35:35.671Z,0.32
2023-02-08T22:38:06.657Z,0.14
2023-02-08T22:40:36.571Z,0.06
2023-02-08T22:43:05.424Z,0.12
2023-02-08T22:45:34.295Z,0.07
2023-02-08T22:48:01.929Z,-0.01
2023-02-08T22:50:30.731Z,-0.05
2023-02-08T22:53:01.218Z,0.07
2023-02-08T22:55:29.380Z,0.19
2023-02-08T22:58:02.142Z,0.15
2023-02-08T23:00:34.243Z,-0.09
2023-02-08T23:03:03.074Z,-0.12
2023-02-08T23:05:30.631Z,-0.05
2023-02-08T23:08:01.220Z,-0.07
2023-02-08T23:10:33.003Z,-0.11
2023-02-08T23:13:02.605Z,-0.43
2023-02-08T23:15:32.454Z,-0.51
2023-02-08T23:18:01.902Z,-0.36
2023-02-08T23:20:30.268Z,-0.33
2023-02-08T23:22:58.264Z,-0.23
2023-02-08T23:25:26.015Z,-0.40
2023-02-08T23:27:55.264Z,-0.50
2023-02-08T23:30:23.352Z,-0.37
2023-02-08T23:32:51.640Z,-0.36
2023-02-08T23:35:22.254Z,-0.43
2023-02-08T23:37:52.273Z,-0.59
2023-02-08T23:40:20.573Z,-0.48
2023-02-08T23:42:48.546Z,-0.40
2023-02-08T23:45:18.731Z,-0.52
2023-02-08T23:47:46.393Z,-0.59
2023-02-08T23:50:15.057Z,-0.64
2023-02-08T23:52:43.332Z,-0.68
2023-02-08T23:55:14.387Z,-0.70
2023-02-08T23:57:43.734Z,-0.79
